createdAt,value
2022-10-17T00:01:09.721Z,91.10
2022-10-17T00:03:39.025Z,97.90
2022-10-17T00:06:10.527Z,99.30
2022-10-17T00:08:40.884Z,88.10
2022-10-17T00:11:14.949Z,93.70
2022-10-17T00:13:45.316Z,77.40
2022-10-17T00:16:13.559Z,79.10
2022-10-17T00:18:41.379Z,80.30
2022-10-17T00:21:17.364Z,93.20
2022-10-17T00:23:46.720Z,83.60
2022-10-17T00:26:15.745Z,81.30
2022-10-17T00:28:48.358Z,79.50
2022-10-17T00:31:19.258Z,65.70
2022-10-17T00:33:47.956Z,66.10
2022-10-17T00:36:25.223Z,70.90
2022-10-17T00:38:56.911Z,79.80
2022-10-17T00:41:30.477Z,82.80
2022-10-17T00:44:06.192Z,86.30
2022-10-17T00:46:36.621Z,62.70
2022-10-17T00:49:10.548Z,66.10
2022-10-17T00:51:48.629Z,52.50
2022-10-17T00:54:19.677Z,53.60
2022-10-17T00:56:48.057Z,52.80
2022-10-17T00:59:19.549Z,45.70
2022-10-17T01:02:19.759Z,44.80
2022-10-17T01:04:51.887Z,47.80
2022-10-17T01:07:19.585Z,70.60
2022-10-17T01:09:47.809Z,75.50
2022-10-17T01:12:26.259Z,76.10
2022-10-17T01:15:26.774Z,65.40
2022-10-17T01:18:23.099Z,66.40
2022-10-17T01:21:20.887Z,63.10
2022-10-17T01:24:12.939Z,66.60
2022-10-17T01:26:59.371Z,58.50
2022-10-17T01:30:18.065Z,64.90
2022-10-17T01:32:59.240Z,58.80
2022-10-17T01:36:00.530Z,52.50
2022-10-17T01:38:46.590Z,50.50
2022-10-17T01:41:41.811Z,44.60
2022-10-17T01:44:23.405Z,49.40
2022-10-17T01:46:52.475Z,52.80
2022-10-17T01:49:24.984Z,48.70
2022-10-17T01:51:59.586Z,48.10
2022-10-17T01:54:35.814Z,49.60
2022-10-17T01:57:06.786Z,46.50
2022-10-17T01:59:44.951Z,60.00
2022-10-17T02:02:14.504Z,52.20
2022-10-17T02:04:43.179Z,56.40
2022-10-17T02:07:13.375Z,55.40
2022-10-17T02:09:41.056Z,52.00
2022-10-17T02:12:34.716Z,56.10
2022-10-17T02:15:43.470Z,51.20
2022-10-17T02:18:54.594Z,48.10
2022-10-17T02:22:23.925Z,53.30
2022-10-17T02:25:20.931Z,52.70
2022-10-17T02:28:23.894Z,53.50
2022-10-17T02:31:07.811Z,67.00
2022-10-17T02:33:46.311Z,63.00
2022-10-17T02:36:29.583Z,55.70
2022-10-17T02:38:58.195Z,57.10
2022-10-17T02:41:26.295Z,56.90
2022-10-17T02:43:56.631Z,50.00
2022-10-17T02:46:28.769Z,51.70
2022-10-17T02:49:24.093Z,52.50
2022-10-17T02:52:14.556Z,60.60
2022-10-17T02:54:52.705Z,54.60
2022-10-17T02:57:39.817Z,53.30
2022-10-17T03:00:13.677Z,48.30
2022-10-17T03:02:51.250Z,49.10
2022-10-17T03:05:28.786Z,48.80
2022-10-17T03:07:56.881Z,41.10
2022-10-17T03:10:24.689Z,43.60
2022-10-17T03:12:52.458Z,50.20
2022-10-17T03:15:20.160Z,44.80
2022-10-17T03:17:47.889Z,42.30
2022-10-17T03:20:15.819Z,46.50
2022-10-17T03:22:43.539Z,41.60
2022-10-17T03:25:11.187Z,41.30
2022-10-17T03:27:38.911Z,43.80
2022-10-17T03:30:07.677Z,42.80
2022-10-17T03:32:36.059Z,41.50
2022-10-17T03:35:04.661Z,46.80
2022-10-17T03:37:32.581Z,45.30
2022-10-17T03:40:00.534Z,45.10
2022-10-17T03:42:28.409Z,42.50
2022-10-17T03:44:56.033Z,74.70
2022-10-17T03:47:23.711Z,79.40
2022-10-17T03:49:53.711Z,59.20
2022-10-17T03:52:21.667Z,57.70
2022-10-17T03:54:51.191Z,55.90
2022-10-17T03:57:19.675Z,50.90
2022-10-17T03:59:47.419Z,47.40
2022-10-17T04:02:15.097Z,47.30
2022-10-17T04:04:42.753Z,54.60
2022-10-17T04:07:10.459Z,208.20
2022-10-17T04:09:38.182Z,136.20
2022-10-17T04:12:05.913Z,100.10
2022-10-17T04:14:33.695Z,62.70
2022-10-17T04:17:01.331Z,57.10
2022-10-17T04:19:29.193Z,56.00
2022-10-17T04:21:56.937Z,64.90
2022-10-17T04:24:25.833Z,69.40
2022-10-17T04:26:54.848Z,62.60
2022-10-17T04:29:22.619Z,60.50
2022-10-17T04:31:51.792Z,56.20
2022-10-17T04:34:19.862Z,71.40
2022-10-17T04:36:47.691Z,91.70
2022-10-17T04:39:15.548Z,76.20
2022-10-17T04:41:43.488Z,72.80
2022-10-17T04:44:11.305Z,69.10
2022-10-17T04:46:39.369Z,58.10
2022-10-17T04:49:07.160Z,64.40
2022-10-17T04:51:35.013Z,60.40
2022-10-17T04:54:02.848Z,55.90
2022-10-17T04:56:30.969Z,54.40
2022-10-17T04:58:59.776Z,51.40
2022-10-17T05:01:27.626Z,50.50
2022-10-17T05:03:56.112Z,61.50
2022-10-17T05:06:27.966Z,61.40
2022-10-17T05:08:56.556Z,62.60
2022-10-17T05:11:28.108Z,61.70
2022-10-17T05:14:01.918Z,60.50
2022-10-17T05:16:31.010Z,78.30
2022-10-17T05:18:59.600Z,68.70
2022-10-17T05:21:29.406Z,58.10
2022-10-17T05:23:57.540Z,56.80
2022-10-17T05:26:26.346Z,60.70
2022-10-17T05:28:54.856Z,70.30
2022-10-17T05:31:22.680Z,55.20
2022-10-17T05:33:50.419Z,47.40
2022-10-17T05:36:18.074Z,63.30
2022-10-17T05:38:51.206Z,64.20
2022-10-17T05:41:20.097Z,73.10
2022-10-17T05:43:47.938Z,64.30
2022-10-17T05:46:15.728Z,71.60
2022-10-17T05:48:46.189Z,66.00
2022-10-17T05:51:14.133Z,66.70
2022-10-17T05:53:45.651Z,69.60
2022-10-17T05:56:14.979Z,70.80
2022-10-17T05:58:50.295Z,65.50
2022-10-17T06:01:19.353Z,68.80
2022-10-17T06:03:47.065Z,69.00
2022-10-17T06:06:15.519Z,70.70
2022-10-17T06:08:44.057Z,65.10
2022-10-17T06:11:13.207Z,67.60
2022-10-17T06:13:41.489Z,73.40
2022-10-17T06:16:11.654Z,65.20
2022-10-17T06:18:39.489Z,73.90
2022-10-17T06:21:11.473Z,69.40
2022-10-17T06:23:39.198Z,66.40
2022-10-17T06:26:07.782Z,73.60
2022-10-17T06:28:36.712Z,76.50
2022-10-17T06:31:11.196Z,84.90
2022-10-17T06:33:39.443Z,85.00
2022-10-17T06:42:49.072Z,81.20
2022-10-17T06:45:15.525Z,74.50
2022-10-17T06:47:41.870Z,80.80
2022-10-17T06:50:08.652Z,69.70
2022-10-17T06:52:35.198Z,73.30
2022-10-17T06:57:32.815Z,71.40
2022-10-17T06:59:59.151Z,68.20
2022-10-17T07:02:25.769Z,63.70
2022-10-17T07:04:52.231Z,69.10
2022-10-17T07:07:18.610Z,70.90
2022-10-17T07:09:44.935Z,72.50
2022-10-17T07:12:12.226Z,67.40
2022-10-17T07:14:38.692Z,59.20
2022-10-17T07:17:05.257Z,62.70
2022-10-17T07:19:32.099Z,56.70
2022-10-17T07:21:58.656Z,53.70
2022-10-17T07:24:25.234Z,45.40
2022-10-17T07:26:51.974Z,47.00
2022-10-17T07:29:18.401Z,45.70
2022-10-17T07:31:48.274Z,46.10
2022-10-17T07:34:17.866Z,46.40
2022-10-17T07:36:44.879Z,43.90
2022-10-17T07:39:14.374Z,46.90
2022-10-17T07:41:40.923Z,49.70
2022-10-17T07:44:07.341Z,42.10
2022-10-17T07:46:33.836Z,45.50
2022-10-17T07:49:00.187Z,40.70
2022-10-17T07:51:27.295Z,41.80
2022-10-17T07:53:53.588Z,47.20
2022-10-17T07:56:23.977Z,47.10
2022-10-17T07:58:52.019Z,43.60
2022-10-17T08:01:18.821Z,45.00
2022-10-17T08:03:47.962Z,43.00
2022-10-17T08:06:14.829Z,42.10
2022-10-17T08:08:41.691Z,41.50
2022-10-17T08:11:12.297Z,43.40
2022-10-17T08:13:39.870Z,45.40
2022-10-17T08:16:09.448Z,44.00
2022-10-17T08:18:36.687Z,41.10
2022-10-17T08:21:08.731Z,41.30
2022-10-17T08:23:36.178Z,44.40
2022-10-17T08:26:05.667Z,42.60
2022-10-17T08:28:36.051Z,41.20
2022-10-17T08:31:18.267Z,42.30
2022-10-17T08:33:45.369Z,39.90
2022-10-17T08:36:18.336Z,37.70
2022-10-17T08:38:47.912Z,38.80
2022-10-17T08:41:51.739Z,33.60
2022-10-17T08:44:44.786Z,39.30
2022-10-17T08:47:18.760Z,35.30
2022-10-17T08:49:52.969Z,34.50
2022-10-17T08:52:34.240Z,32.80
2022-10-17T08:55:00.651Z,33.10
2022-10-17T08:57:28.453Z,32.20
2022-10-17T08:59:56.238Z,36.40
2022-10-17T09:02:43.077Z,37.40
2022-10-17T09:05:28.123Z,35.10
2022-10-17T09:08:09.051Z,34.80
2022-10-17T09:11:00.207Z,31.10
2022-10-17T09:14:10.631Z,31.20
2022-10-17T09:17:03.245Z,34.40
2022-10-17T09:22:08.723Z,27.20
2022-10-17T09:25:02.735Z,25.20
2022-10-17T09:27:48.960Z,28.70
2022-10-17T09:30:45.836Z,26.00
2022-10-17T09:33:28.532Z,26.90
2022-10-17T09:36:08.647Z,30.30
2022-10-17T09:38:52.279Z,24.40
2022-10-17T09:41:44.909Z,23.60
2022-10-17T09:44:29.052Z,25.50
2022-10-17T09:47:25.174Z,23.90
2022-10-17T09:49:52.209Z,22.30
2022-10-17T09:52:36.200Z,25.80
2022-10-17T09:55:21.981Z,27.40
2022-10-17T09:58:00.903Z,25.80
2022-10-17T10:00:31.863Z,24.70
2022-10-17T10:03:17.840Z,23.80
2022-10-17T10:05:58.788Z,22.40
2022-10-17T10:08:38.668Z,23.60
2022-10-17T10:11:13.349Z,19.90
2022-10-17T10:13:40.461Z,22.50
2022-10-17T10:16:18.230Z,21.80
2022-10-17T10:18:47.546Z,21.00
2022-10-17T10:21:27.083Z,20.80
2022-10-17T10:24:08.766Z,21.70
2022-10-17T10:26:59.419Z,19.70
2022-10-17T10:29:36.615Z,19.50
2022-10-17T10:32:19.181Z,24.90
2022-10-17T10:35:20.709Z,17.50
2022-10-17T10:37:58.562Z,17.40
2022-10-17T10:40:36.776Z,19.00
2022-10-17T10:43:05.683Z,19.90
2022-10-17T10:45:47.446Z,19.20
2022-10-17T10:48:27.753Z,24.20
2022-10-17T10:51:02.677Z,19.00
2022-10-17T10:53:56.589Z,19.70
2022-10-17T10:56:32.762Z,19.10
2022-10-17T10:59:08.326Z,21.70
2022-10-17T11:01:44.134Z,19.10
2022-10-17T11:04:46.670Z,18.10
2022-10-17T11:07:56.069Z,19.50
2022-10-17T11:10:51.793Z,19.10
2022-10-17T11:13:43.108Z,17.60
2022-10-17T11:16:50.097Z,15.20
2022-10-17T11:19:43.481Z,15.50
2022-10-17T11:22:23.978Z,21.70
2022-10-17T11:28:39.978Z,18.20
2022-10-17T11:31:20.360Z,19.20
2022-10-17T11:34:46.349Z,17.00
2022-10-17T11:38:16.210Z,17.00
2022-10-17T11:40:50.812Z,14.90
2022-10-17T11:44:02.583Z,16.20
2022-10-17T11:46:35.910Z,16.50
2022-10-17T11:49:20.362Z,17.60
2022-10-17T11:52:10.054Z,14.00
2022-10-17T11:54:51.323Z,19.30
2022-10-17T11:57:54.336Z,15.80
2022-10-17T12:00:45.134Z,15.20
2022-10-17T12:03:41.312Z,15.20
2022-10-17T12:06:20.309Z,12.60
2022-10-17T12:09:00.023Z,16.90
2022-10-17T12:11:57.866Z,16.80
2022-10-17T12:14:42.149Z,13.10
2022-10-17T12:17:40.102Z,15.30
2022-10-17T12:20:25.231Z,16.00
2022-10-17T12:23:11.747Z,16.60
2022-10-17T12:25:49.452Z,15.50
2022-10-17T12:28:42.182Z,14.90
2022-10-17T12:31:15.717Z,20.10
2022-10-17T12:33:59.278Z,17.40
2022-10-17T12:36:26.903Z,19.30
2022-10-17T12:39:33.168Z,16.50
2022-10-17T12:41:59.545Z,14.80
2022-10-17T12:44:27.205Z,14.70
2022-10-17T12:47:07.473Z,15.90
2022-10-17T12:49:45.868Z,17.30
2022-10-17T12:52:29.005Z,17.50
2022-10-17T12:55:11.927Z,13.60
2022-10-17T12:58:03.241Z,17.00
2022-10-17T13:00:49.856Z,14.80
2022-10-17T13:03:31.215Z,13.40
2022-10-17T13:06:04.740Z,15.50
2022-10-17T13:08:38.895Z,16.60
2022-10-17T13:11:06.142Z,15.70
2022-10-17T13:13:42.027Z,17.50
2022-10-17T13:16:08.912Z,18.00
2022-10-17T13:18:35.415Z,19.00
2022-10-17T13:21:16.244Z,15.50
2022-10-17T13:23:42.846Z,14.80
2022-10-17T13:26:25.041Z,15.20
2022-10-17T13:29:13.823Z,18.30
2022-10-17T13:31:44.533Z,21.60
2022-10-17T13:34:24.365Z,15.20
2022-10-17T13:36:57.666Z,17.50
2022-10-17T13:39:44.985Z,19.10
2022-10-17T13:42:21.466Z,17.80
2022-10-17T13:44:48.067Z,15.70
2022-10-17T13:47:31.900Z,18.20
2022-10-17T13:49:59.111Z,18.00
2022-10-17T13:52:29.617Z,14.70
2022-10-17T13:55:17.472Z,18.40
2022-10-17T13:57:47.037Z,19.20
2022-10-17T14:00:22.323Z,23.50
2022-10-17T14:02:48.901Z,18.00
2022-10-17T14:05:20.201Z,20.30
2022-10-17T14:10:43.181Z,22.70
2022-10-17T14:13:33.423Z,18.90
2022-10-17T14:16:02.772Z,22.30
2022-10-17T14:18:36.481Z,20.30
2022-10-17T14:21:34.394Z,25.50
2022-10-17T14:24:12.210Z,17.60
2022-10-17T14:26:49.957Z,21.90
2022-10-17T14:29:54.048Z,21.20
2022-10-17T14:32:21.815Z,18.80
2022-10-17T14:35:00.712Z,21.00
2022-10-17T14:37:49.676Z,23.00
2022-10-17T14:40:27.136Z,19.00
2022-10-17T14:42:57.068Z,23.90
2022-10-17T14:45:30.457Z,19.10
2022-10-17T14:48:13.225Z,20.40
2022-10-17T14:50:41.549Z,19.50
2022-10-17T14:54:05.053Z,20.80
2022-10-17T14:56:41.445Z,20.90
2022-10-17T14:59:12.626Z,19.60
2022-10-17T15:01:42.274Z,21.70
2022-10-17T15:04:10.397Z,18.40
2022-10-17T15:06:36.838Z,21.90
2022-10-17T15:09:04.089Z,22.00
2022-10-17T15:11:30.579Z,21.00
2022-10-17T15:13:57.088Z,21.60
2022-10-17T15:16:26.160Z,19.70
2022-10-17T15:18:53.841Z,19.60
2022-10-17T15:21:38.445Z,27.40
2022-10-17T15:24:07.193Z,27.30
2022-10-17T15:26:34.460Z,27.40
2022-10-17T15:29:01.231Z,23.50
2022-10-17T15:31:30.653Z,22.80
2022-10-17T15:33:57.651Z,25.90
2022-10-17T15:36:34.432Z,22.80
2022-10-17T15:39:02.030Z,29.80
2022-10-17T15:41:31.126Z,20.50
2022-10-17T15:43:58.219Z,31.30
2022-10-17T15:46:42.118Z,29.90
2022-10-17T15:49:14.350Z,25.00
2022-10-17T15:51:40.902Z,29.70
2022-10-17T15:54:07.343Z,26.20
2022-10-17T15:56:39.688Z,29.40
2022-10-17T15:59:13.407Z,34.20
2022-10-17T16:01:40.068Z,27.10
2022-10-17T16:04:06.609Z,37.10
2022-10-17T16:06:33.056Z,31.60
2022-10-17T16:08:59.859Z,32.20
2022-10-17T16:11:34.875Z,39.50
2022-10-17T16:14:06.506Z,41.90
2022-10-17T16:16:33.557Z,38.30
2022-10-17T16:19:00.982Z,38.80
2022-10-17T16:21:32.274Z,64.60
2022-10-17T16:24:00.038Z,58.60
2022-10-17T16:26:28.374Z,55.70
2022-10-17T16:29:02.008Z,57.70
2022-10-17T16:31:36.187Z,68.90
2022-10-17T16:34:04.265Z,63.20
2022-10-17T16:36:30.773Z,65.10
2022-10-17T16:38:57.402Z,93.40
2022-10-17T16:41:31.993Z,76.10
2022-10-17T16:44:01.505Z,75.00
2022-10-17T16:46:30.148Z,75.70
2022-10-17T16:48:57.610Z,72.80
2022-10-17T16:51:24.128Z,89.70
2022-10-17T16:53:53.875Z,90.70
2022-10-17T16:56:23.619Z,84.50
2022-10-17T16:58:51.261Z,81.60
2022-10-17T17:01:22.725Z,99.80
2022-10-17T17:03:51.096Z,90.70
2022-10-17T17:06:24.587Z,69.90
2022-10-17T17:08:51.033Z,101.60
2022-10-17T17:11:19.921Z,106.50
2022-10-17T17:13:46.767Z,137.40
2022-10-17T17:16:24.758Z,99.10
2022-10-17T17:19:04.445Z,91.00
2022-10-17T17:21:32.262Z,116.60
2022-10-17T17:24:01.507Z,170.40
2022-10-17T17:26:34.255Z,219.70
2022-10-17T17:29:01.344Z,125.60
2022-10-17T17:31:31.353Z,111.30
2022-10-17T17:36:31.434Z,101.60
2022-10-17T17:39:35.884Z,111.80
2022-10-17T17:42:02.633Z,120.20
2022-10-17T17:44:29.134Z,120.50
2022-10-17T17:46:55.541Z,124.30
2022-10-17T17:49:22.126Z,119.70
2022-10-17T17:51:48.490Z,126.50
2022-10-17T17:54:14.993Z,120.70
2022-10-17T17:56:41.670Z,110.10
2022-10-17T17:59:12.044Z,111.90
2022-10-17T18:01:39.388Z,103.30
2022-10-17T18:04:08.131Z,96.90
2022-10-17T18:06:37.255Z,112.20
2022-10-17T18:09:05.509Z,117.20
2022-10-17T18:11:32.550Z,101.90
2022-10-17T18:14:07.061Z,104.10
2022-10-17T18:16:35.836Z,93.00
2022-10-17T18:19:07.011Z,100.60
2022-10-17T18:21:35.490Z,98.70
2022-10-17T18:24:04.506Z,101.50
2022-10-17T18:26:32.119Z,101.10
2022-10-17T18:28:58.868Z,105.20
2022-10-17T18:31:31.477Z,106.80
2022-10-17T18:36:28.016Z,114.30
2022-10-17T18:38:55.657Z,114.20
2022-10-17T18:41:25.161Z,127.90
2022-10-17T18:43:53.882Z,119.60
2022-10-17T18:46:29.649Z,115.30
2022-10-17T18:48:56.329Z,112.60
2022-10-17T18:51:25.079Z,100.60
2022-10-17T18:53:54.741Z,104.20
2022-10-17T18:56:22.678Z,102.00
2022-10-17T18:58:49.471Z,100.20
2022-10-17T19:01:21.018Z,108.20
2022-10-17T19:03:49.579Z,99.10
2022-10-17T19:06:19.875Z,93.80
2022-10-17T19:08:47.488Z,89.00
2022-10-17T19:11:18.297Z,94.60
2022-10-17T19:13:47.588Z,87.40
2022-10-17T19:16:27.680Z,88.40
2022-10-17T19:19:20.606Z,86.20
2022-10-17T19:24:24.691Z,86.40
2022-10-17T19:35:28.626Z,81.80
2022-10-17T19:37:56.295Z,77.60
2022-10-17T19:40:23.982Z,71.90
2022-10-17T19:42:52.254Z,72.80
2022-10-17T19:45:20.059Z,63.90
2022-10-17T19:47:47.784Z,67.50
2022-10-17T19:50:15.759Z,66.20
2022-10-17T19:52:43.569Z,62.10
2022-10-17T19:55:11.340Z,55.00
2022-10-17T19:57:39.157Z,59.30
2022-10-17T20:00:07.809Z,52.90
2022-10-17T20:02:35.589Z,55.90
2022-10-17T20:05:18.135Z,48.30
2022-10-17T20:07:46.831Z,49.50
2022-10-17T20:10:14.653Z,47.60
2022-10-17T20:12:42.350Z,46.00
2022-10-17T20:15:10.845Z,55.40
2022-10-17T20:17:38.935Z,48.30
2022-10-17T20:20:08.872Z,50.60
2022-10-17T20:22:36.824Z,42.30
2022-10-17T20:25:05.373Z,39.70
2022-10-17T20:27:33.278Z,43.00
2022-10-17T20:30:02.529Z,38.70
2022-10-17T20:32:39.551Z,38.60
2022-10-17T20:35:08.588Z,43.00
2022-10-17T20:37:41.582Z,37.60
2022-10-17T20:43:00.479Z,40.90
2022-10-17T20:45:43.623Z,39.10
2022-10-17T20:48:16.372Z,36.60
2022-10-17T20:50:44.709Z,40.40
2022-10-17T20:56:03.575Z,38.70
2022-10-17T20:58:31.365Z,41.70
2022-10-17T21:00:59.177Z,40.10
2022-10-17T21:03:26.933Z,40.50
2022-10-17T21:05:54.647Z,50.10
2022-10-17T21:08:22.381Z,41.00
2022-10-17T21:10:50.104Z,39.80
2022-10-17T21:13:17.870Z,36.00
2022-10-17T21:15:45.599Z,39.00
2022-10-17T21:18:13.283Z,35.90
2022-10-17T21:20:40.948Z,36.20
2022-10-17T21:23:08.636Z,38.00
2022-10-17T21:25:36.284Z,38.60
2022-10-17T21:28:03.995Z,38.40
2022-10-17T21:30:31.667Z,35.90
2022-10-17T21:32:59.621Z,37.00
2022-10-17T21:35:27.416Z,36.90
2022-10-17T21:37:55.080Z,36.20
2022-10-17T21:40:22.746Z,39.70
2022-10-17T21:42:50.353Z,37.70
2022-10-17T21:45:25.379Z,36.30
2022-10-17T21:48:13.801Z,39.70
2022-10-17T21:50:41.567Z,42.10
2022-10-17T21:53:09.305Z,44.20
2022-10-17T21:55:37.723Z,36.30
2022-10-17T21:58:05.488Z,38.10
2022-10-17T22:00:33.203Z,36.20
2022-10-17T22:03:01.162Z,40.20
2022-10-17T22:05:30.756Z,46.30
2022-10-17T22:07:58.424Z,38.00
2022-10-17T22:10:26.136Z,38.90
2022-10-17T22:12:53.855Z,33.20
2022-10-17T22:15:21.613Z,36.00
2022-10-17T22:17:49.436Z,36.40
2022-10-17T22:20:17.380Z,38.00
2022-10-17T22:22:45.065Z,41.60
2022-10-17T22:25:12.773Z,38.00
2022-10-17T22:27:40.460Z,37.20
2022-10-17T22:30:09.171Z,41.30
2022-10-17T22:32:36.882Z,37.60
2022-10-17T22:35:05.230Z,39.30
2022-10-17T22:37:33.431Z,45.60
2022-10-17T22:40:01.383Z,42.70
2022-10-17T22:42:31.779Z,51.70
2022-10-17T22:45:00.297Z,45.50
2022-10-17T22:47:30.668Z,48.30
2022-10-17T22:49:58.707Z,45.30
2022-10-17T22:52:26.424Z,37.20
2022-10-17T22:54:54.109Z,39.70
2022-10-17T22:57:21.737Z,41.50
2022-10-17T22:59:49.550Z,40.90
2022-10-17T23:02:17.240Z,39.70
2022-10-17T23:04:45.009Z,35.90
2022-10-17T23:07:14.258Z,42.00
2022-10-17T23:09:42.066Z,37.50
2022-10-17T23:12:10.169Z,36.70
2022-10-17T23:14:37.954Z,33.00
2022-10-17T23:17:06.322Z,29.40
2022-10-17T23:19:34.723Z,32.10
2022-10-17T23:22:03.195Z,30.40
2022-10-17T23:24:31.098Z,33.40
2022-10-17T23:26:58.931Z,36.50
2022-10-17T23:29:30.988Z,38.40
2022-10-17T23:31:59.144Z,38.60
2022-10-17T23:34:28.647Z,33.20
2022-10-17T23:36:56.836Z,36.60
2022-10-17T23:39:24.661Z,31.80
2022-10-17T23:41:52.288Z,42.70
2022-10-17T23:44:20.045Z,37.50
2022-10-17T23:46:47.929Z,38.20
2022-10-17T23:49:15.662Z,40.80
2022-10-17T23:51:43.266Z,34.10
2022-10-17T23:54:11.006Z,39.70
2022-10-17T23:56:38.787Z,39.00
2022-10-17T23:59:06.510Z,39.70
